Главная страница
METAR-TAF:

METAR-TAF

Аэропорты :

Флорианополис, Санта-Катарина, Бразилия

Эрсилиу Лус

широта: 27-40S, долгота: 048-33W, высота над уровнем моря: 5 м

Текущие метеонаблюдения

Эта сводка был подготовлена 57 минут назад, в 22:00 UTC
Ветер 2 Узел от южный
Температура 23°C
Влажность 83%
Давление 1017 hPa
Видимость 10 км и более
небольшая облачность на высоте 3000 фута

METAR: SBFL 262200Z 18002KT 9999 FEW030 23/20 Q1017

Время: 19:57 (22:57 UTC)

Прогноз

Эта сводка был подготовлена 7 часа и 57 минут назад, в 15:00 UTC
Прогноз действительный с 26-го 18 UTC до 27-го 18 UTC
Ветер 6 Узел от северно-северо-западный
Видимость 10 км и более
Нет облачности ниже 1500 м, и нет кучево-дождевой облачности
Вероятность 40% :
временами
С 26-го 18 UTC до 26-го 24 UTC
Ветер 8 Узел от северо-северо-восточный

TAF: SBFL 261500Z 2618/2718 34006KT CAVOK TX28/2618Z TN19/2708Z PROB40 TEMPO 2618/2624 02008KT RMK PDP

Метеонаблюдения и прогнозы для более 4000 аэропортов (сводки METAR и TAF).

Имеющиеся станции представлены на карте желтыми и красными точками.

Чтобы увидеть название станции, наведите на нее мышь.

Затем щелкните, чтобы увидеть метеонаблюдения и метеопрогнозы.

Управление картой: чтобы увеличить масштаб, щелкните зеленые кнопки с черным крестиком; чтобы уменьшить масштаб, щелкните зеленую кнопку с тире; для просмотра соседних карт щелкайте зеленые стрелки.


METAR-TAF: